sensor_id;sensor_type;location;lat;lon;timestamp;pressure;altitude;pressure_sealevel;temperature;humidity
39729;BME280;25402;42.004;23.088;2023-12-20T00:02:17;98030.50;;;-1.99;52.14
39729;BME280;25402;42.004;23.088;2023-12-20T00:04:46;98032.19;;;-1.98;52.42
39729;BME280;25402;42.004;23.088;2023-12-20T00:07:13;98035.44;;;-1.93;52.22
39729;BME280;25402;42.004;23.088;2023-12-20T00:09:40;98025.59;;;-1.91;52.06
39729;BME280;25402;42.004;23.088;2023-12-20T00:12:07;98022.34;;;-1.96;52.14
39729;BME280;25402;42.004;23.088;2023-12-20T00:14:35;98023.22;;;-1.96;52.12
39729;BME280;25402;42.004;23.088;2023-12-20T00:17:02;98011.66;;;-1.95;51.68
39729;BME280;25402;42.004;23.088;2023-12-20T00:19:29;98025.00;;;-1.96;52.08
39729;BME280;25402;42.004;23.088;2023-12-20T00:21:57;98020.66;;;-1.97;51.95
39729;BME280;25402;42.004;23.088;2023-12-20T00:24:25;97998.09;;;-2.04;51.97
39729;BME280;25402;42.004;23.088;2023-12-20T00:26:52;98021.69;;;-2.00;51.96
39729;BME280;25402;42.004;23.088;2023-12-20T00:29:18;98019.97;;;-2.01;51.99
39729;BME280;25402;42.004;23.088;2023-12-20T00:31:46;98017.75;;;-2.07;51.93
39729;BME280;25402;42.004;23.088;2023-12-20T00:34:13;98011.19;;;-2.16;51.97
39729;BME280;25402;42.004;23.088;2023-12-20T00:36:41;98010.16;;;-2.13;51.77
39729;BME280;25402;42.004;23.088;2023-12-20T00:39:09;98009.88;;;-2.08;51.64
39729;BME280;25402;42.004;23.088;2023-12-20T00:41:36;98009.69;;;-2.05;51.51
39729;BME280;25402;42.004;23.088;2023-12-20T00:44:04;98002.19;;;-2.13;51.72
39729;BME280;25402;42.004;23.088;2023-12-20T00:46:31;97989.13;;;-2.16;51.67
39729;BME280;25402;42.004;23.088;2023-12-20T00:48:58;98008.44;;;-2.14;51.75
39729;BME280;25402;42.004;23.088;2023-12-20T00:51:25;97998.88;;;-2.17;51.75
39729;BME280;25402;42.004;23.088;2023-12-20T00:53:52;98000.78;;;-2.19;51.40
39729;BME280;25402;42.004;23.088;2023-12-20T00:56:21;97994.06;;;-2.24;51.56
39729;BME280;25402;42.004;23.088;2023-12-20T00:58:49;97993.13;;;-2.23;51.70
39729;BME280;25402;42.004;23.088;2023-12-20T01:01:16;97988.59;;;-2.21;51.60
39729;BME280;25402;42.004;23.088;2023-12-20T01:03:43;97982.03;;;-2.30;51.67
39729;BME280;25402;42.004;23.088;2023-12-20T01:06:10;97969.56;;;-2.28;51.59
39729;BME280;25402;42.004;23.088;2023-12-20T01:08:37;97977.50;;;-2.28;51.66
39729;BME280;25402;42.004;23.088;2023-12-20T01:11:05;97974.84;;;-2.28;51.82
39729;BME280;25402;42.004;23.088;2023-12-20T01:13:33;97972.88;;;-2.24;51.61
39729;BME280;25402;42.004;23.088;2023-12-20T01:16:01;97964.06;;;-2.25;51.53
39729;BME280;25402;42.004;23.088;2023-12-20T01:18:28;97968.50;;;-2.25;51.58
39729;BME280;25402;42.004;23.088;2023-12-20T01:20:55;97958.38;;;-2.33;51.58
39729;BME280;25402;42.004;23.088;2023-12-20T01:23:22;97947.41;;;-2.41;51.84
39729;BME280;25402;42.004;23.088;2023-12-20T01:25:49;97949.31;;;-2.43;51.43
39729;BME280;25402;42.004;23.088;2023-12-20T01:28:16;97961.97;;;-2.34;51.45
39729;BME280;25402;42.004;23.088;2023-12-20T01:30:45;97952.91;;;-2.44;51.88
39729;BME280;25402;42.004;23.088;2023-12-20T01:33:12;97940.59;;;-2.45;51.88
39729;BME280;25402;42.004;23.088;2023-12-20T01:35:39;97937.00;;;-2.44;51.68
39729;BME280;25402;42.004;23.088;2023-12-20T01:38:06;97928.00;;;-2.41;51.42
39729;BME280;25402;42.004;23.088;2023-12-20T01:40:33;97936.81;;;-2.41;51.63
39729;BME280;25402;42.004;23.088;2023-12-20T01:43:01;97919.97;;;-2.40;51.65
39729;BME280;25402;42.004;23.088;2023-12-20T01:45:29;97900.28;;;-2.50;51.84
39729;BME280;25402;42.004;23.088;2023-12-20T01:47:58;97913.50;;;-2.36;51.53
39729;BME280;25402;42.004;23.088;2023-12-20T01:50:28;97921.19;;;-2.31;51.64
39729;BME280;25402;42.004;23.088;2023-12-20T01:52:55;97914.84;;;-2.29;51.72
39729;BME280;25402;42.004;23.088;2023-12-20T01:55:25;97907.94;;;-2.31;51.95
39729;BME280;25402;42.004;23.088;2023-12-20T01:57:52;97902.28;;;-2.39;51.93
39729;BME280;25402;42.004;23.088;2023-12-20T02:00:21;97878.53;;;-2.41;51.76
39729;BME280;25402;42.004;23.088;2023-12-20T02:02:53;97891.94;;;-2.30;52.03
39729;BME280;25402;42.004;23.088;2023-12-20T02:05:22;97898.56;;;-2.23;51.97
39729;BME280;25402;42.004;23.088;2023-12-20T02:07:51;97890.38;;;-2.20;51.44
39729;BME280;25402;42.004;23.088;2023-12-20T02:10:18;97894.97;;;-2.22;51.91
39729;BME280;25402;42.004;23.088;2023-12-20T02:12:45;97873.00;;;-2.24;51.65
39729;BME280;25402;42.004;23.088;2023-12-20T02:15:12;97882.06;;;-2.13;51.81
39729;BME280;25402;42.004;23.088;2023-12-20T02:17:39;97867.50;;;-2.21;51.68
39729;BME280;25402;42.004;23.088;2023-12-20T02:20:07;97873.91;;;-2.10;51.52
39729;BME280;25402;42.004;23.088;2023-12-20T02:22:35;97885.84;;;-2.18;51.76
39729;BME280;25402;42.004;23.088;2023-12-20T02:25:03;97874.47;;;-2.20;51.63
39729;BME280;25402;42.004;23.088;2023-12-20T02:27:30;97867.19;;;-2.16;51.40
39729;BME280;25402;42.004;23.088;2023-12-20T02:29:57;97877.34;;;-2.23;51.16
39729;BME280;25402;42.004;23.088;2023-12-20T02:32:25;97867.03;;;-2.27;51.26
39729;BME280;25402;42.004;23.088;2023-12-20T02:34:52;97858.72;;;-2.35;51.41
39729;BME280;25402;42.004;23.088;2023-12-20T02:37:20;97859.03;;;-2.40;51.31
39729;BME280;25402;42.004;23.088;2023-12-20T02:39:48;97857.75;;;-2.34;51.25
39729;BME280;25402;42.004;23.088;2023-12-20T02:42:15;97850.13;;;-2.39;51.10
39729;BME280;25402;42.004;23.088;2023-12-20T02:44:42;97851.06;;;-2.40;50.98
39729;BME280;25402;42.004;23.088;2023-12-20T02:47:10;97855.03;;;-2.47;51.10
39729;BME280;25402;42.004;23.088;2023-12-20T02:49:37;97838.81;;;-2.55;51.15
39729;BME280;25402;42.004;23.088;2023-12-20T02:52:04;97839.75;;;-2.56;51.18
39729;BME280;25402;42.004;23.088;2023-12-20T02:54:31;97839.94;;;-2.59;51.32
39729;BME280;25402;42.004;23.088;2023-12-20T02:57:00;97826.66;;;-2.45;50.96
39729;BME280;25402;42.004;23.088;2023-12-20T02:59:27;97828.47;;;-2.45;50.90
39729;BME280;25402;42.004;23.088;2023-12-20T03:01:54;97827.03;;;-2.51;50.99
39729;BME280;25402;42.004;23.088;2023-12-20T03:04:21;97820.34;;;-2.57;50.94
39729;BME280;25402;42.004;23.088;2023-12-20T03:06:48;97821.97;;;-2.54;51.13
39729;BME280;25402;42.004;23.088;2023-12-20T03:09:15;97813.59;;;-2.62;50.92
39729;BME280;25402;42.004;23.088;2023-12-20T03:11:42;97828.22;;;-2.55;51.00
39729;BME280;25402;42.004;23.088;2023-12-20T03:14:11;97827.53;;;-2.59;51.18
39729;BME280;25402;42.004;23.088;2023-12-20T03:16:38;97829.25;;;-2.58;51.29
39729;BME280;25402;42.004;23.088;2023-12-20T03:19:05;97820.25;;;-2.55;51.41
39729;BME280;25402;42.004;23.088;2023-12-20T03:21:32;97824.38;;;-2.51;51.38
39729;BME280;25402;42.004;23.088;2023-12-20T03:23:59;97823.66;;;-2.53;51.46
39729;BME280;25402;42.004;23.088;2023-12-20T03:26:26;97818.66;;;-2.58;51.44
39729;BME280;25402;42.004;23.088;2023-12-20T03:28:53;97822.06;;;-2.56;51.67
39729;BME280;25402;42.004;23.088;2023-12-20T03:31:22;97799.06;;;-2.69;51.76
39729;BME280;25402;42.004;23.088;2023-12-20T03:33:49;97819.69;;;-2.60;51.63
39729;BME280;25402;42.004;23.088;2023-12-20T03:36:16;97802.56;;;-2.69;51.56
39729;BME280;25402;42.004;23.088;2023-12-20T03:38:43;97818.13;;;-2.64;51.71
39729;BME280;25402;42.004;23.088;2023-12-20T03:41:10;97816.44;;;-2.65;51.75
39729;BME280;25402;42.004;23.088;2023-12-20T03:43:37;97825.75;;;-2.58;51.74
39729;BME280;25402;42.004;23.088;2023-12-20T03:46:05;97824.03;;;-2.59;51.68
39729;BME280;25402;42.004;23.088;2023-12-20T03:48:33;97820.63;;;-2.61;51.84
39729;BME280;25402;42.004;23.088;2023-12-20T03:51:01;97798.59;;;-2.76;51.53
39729;BME280;25402;42.004;23.088;2023-12-20T03:53:28;97809.09;;;-2.60;51.51
39729;BME280;25402;42.004;23.088;2023-12-20T03:55:55;97816.75;;;-2.56;51.40
39729;BME280;25402;42.004;23.088;2023-12-20T03:58:22;97813.25;;;-2.56;51.44
39729;BME280;25402;42.004;23.088;2023-12-20T04:00:49;97821.28;;;-1.25;66.89
39729;BME280;25402;42.004;23.088;2023-12-20T04:03:16;97803.75;;;0.55;58.42
39729;BME280;25402;42.004;23.088;2023-12-20T04:05:45;97802.81;;;1.90;54.15
39729;BME280;25402;42.004;23.088;2023-12-20T04:08:12;97794.97;;;3.04;48.90
39729;BME280;25402;42.004;23.088;2023-12-20T04:10:39;97791.56;;;4.03;45.97
39729;BME280;25402;42.004;23.088;2023-12-20T04:13:06;97789.03;;;4.59;41.98
39729;BME280;25402;42.004;23.088;2023-12-20T04:15:33;97786.34;;;4.01;39.91
39729;BME280;25402;42.004;23.088;2023-12-20T04:18:00;97779.03;;;3.23;40.12
39729;BME280;25402;42.004;23.088;2023-12-20T04:20:27;97779.84;;;2.63;40.27
39729;BME280;25402;42.004;23.088;2023-12-20T04:22:56;97777.88;;;2.12;40.70
39729;BME280;25402;42.004;23.088;2023-12-20T04:25:23;97768.91;;;1.59;41.14
39729;BME280;25402;42.004;23.088;2023-12-20T04:27:50;97768.59;;;1.19;41.96
39729;BME280;25402;42.004;23.088;2023-12-20T04:30:17;97773.78;;;0.87;42.21
39729;BME280;25402;42.004;23.088;2023-12-20T04:32:44;97759.56;;;0.53;42.62
39729;BME280;25402;42.004;23.088;2023-12-20T04:35:11;97766.91;;;0.27;43.45
39729;BME280;25402;42.004;23.088;2023-12-20T04:37:39;97766.56;;;0.08;43.36
39729;BME280;25402;42.004;23.088;2023-12-20T04:40:08;97767.00;;;0.25;53.41
39729;BME280;25402;42.004;23.088;2023-12-20T04:42:35;97759.56;;;1.64;55.07
39729;BME280;25402;42.004;23.088;2023-12-20T04:45:02;97758.50;;;2.72;53.13
39729;BME280;25402;42.004;23.088;2023-12-20T04:47:29;97754.47;;;3.79;50.26
39729;BME280;25402;42.004;23.088;2023-12-20T04:49:56;97748.72;;;4.70;48.27
39729;BME280;25402;42.004;23.088;2023-12-20T04:52:24;97745.16;;;5.53;45.35
39729;BME280;25402;42.004;23.088;2023-12-20T04:54:52;97746.03;;;5.99;42.47
39729;BME280;25402;42.004;23.088;2023-12-20T04:57:20;97745.81;;;5.83;39.51
39729;BME280;25402;42.004;23.088;2023-12-20T04:59:47;97741.69;;;5.16;38.68
39729;BME280;25402;42.004;23.088;2023-12-20T05:02:14;97747.59;;;4.44;37.67
39729;BME280;25402;42.004;23.088;2023-12-20T05:04:41;97736.69;;;3.78;37.91
39729;BME280;25402;42.004;23.088;2023-12-20T05:07:08;97742.84;;;3.19;37.94
39729;BME280;25402;42.004;23.088;2023-12-20T05:09:35;97743.53;;;2.60;38.52
39729;BME280;25402;42.004;23.088;2023-12-20T05:12:03;97747.69;;;2.12;39.47
39729;BME280;25402;42.004;23.088;2023-12-20T05:14:31;97751.06;;;1.82;40.48
39729;BME280;25402;42.004;23.088;2023-12-20T05:16:58;97750.22;;;1.81;41.63
39729;BME280;25402;42.004;23.088;2023-12-20T05:19:25;97749.63;;;1.78;41.80
39729;BME280;25402;42.004;23.088;2023-12-20T05:21:53;97734.72;;;1.75;47.33
39729;BME280;25402;42.004;23.088;2023-12-20T05:24:21;97745.13;;;1.78;44.66
39729;BME280;25402;42.004;23.088;2023-12-20T05:26:48;97743.50;;;1.32;43.03
39729;BME280;25402;42.004;23.088;2023-12-20T05:29:16;97725.09;;;0.96;43.08
39729;BME280;25402;42.004;23.088;2023-12-20T05:31:44;97724.00;;;0.65;43.36
39729;BME280;25402;42.004;23.088;2023-12-20T05:34:11;97722.13;;;0.32;43.94
39729;BME280;25402;42.004;23.088;2023-12-20T05:36:39;97712.63;;;0.06;44.15
39729;BME280;25402;42.004;23.088;2023-12-20T05:39:06;97726.56;;;-0.15;44.80
39729;BME280;25402;42.004;23.088;2023-12-20T05:41:34;97731.56;;;-0.34;45.28
39729;BME280;25402;42.004;23.088;2023-12-20T05:44:01;97718.75;;;-0.53;45.30
39729;BME280;25402;42.004;23.088;2023-12-20T05:46:28;97702.56;;;-0.73;45.77
39729;BME280;25402;42.004;23.088;2023-12-20T05:48:56;97717.88;;;-0.77;45.99
39729;BME280;25402;42.004;23.088;2023-12-20T05:51:23;97724.72;;;-0.86;46.52
39729;BME280;25402;42.004;23.088;2023-12-20T05:53:51;97712.19;;;-0.96;46.71
39729;BME280;25402;42.004;23.088;2023-12-20T05:56:18;97718.59;;;-1.12;47.19
39729;BME280;25402;42.004;23.088;2023-12-20T05:58:45;97713.53;;;-1.27;47.79
39729;BME280;25402;42.004;23.088;2023-12-20T06:01:14;97701.84;;;-1.37;47.89
39729;BME280;25402;42.004;23.088;2023-12-20T06:03:42;97707.25;;;-1.39;47.42
39729;BME280;25402;42.004;23.088;2023-12-20T06:06:13;97711.41;;;-1.48;47.69
39729;BME280;25402;42.004;23.088;2023-12-20T06:08:41;97713.31;;;-1.62;48.28
39729;BME280;25402;42.004;23.088;2023-12-20T06:11:09;97715.66;;;-1.58;48.47
39729;BME280;25402;42.004;23.088;2023-12-20T06:13:36;97712.69;;;-1.66;48.79
39729;BME280;25402;42.004;23.088;2023-12-20T06:16:05;97713.75;;;-1.68;49.18
39729;BME280;25402;42.004;23.088;2023-12-20T06:18:32;97721.38;;;-1.76;49.31
39729;BME280;25402;42.004;23.088;2023-12-20T06:21:02;97716.28;;;-1.79;49.55
39729;BME280;25402;42.004;23.088;2023-12-20T06:23:31;97706.84;;;-1.84;49.41
39729;BME280;25402;42.004;23.088;2023-12-20T06:25:58;97717.97;;;-1.78;49.79
39729;BME280;25402;42.004;23.088;2023-12-20T06:28:25;97714.03;;;-1.86;49.58
39729;BME280;25402;42.004;23.088;2023-12-20T06:30:52;97713.53;;;-1.78;49.48
39729;BME280;25402;42.004;23.088;2023-12-20T06:33:20;97720.09;;;-1.84;49.79
39729;BME280;25402;42.004;23.088;2023-12-20T06:35:48;97697.91;;;-1.95;49.99
39729;BME280;25402;42.004;23.088;2023-12-20T06:38:15;97711.91;;;-1.93;50.05
39729;BME280;25402;42.004;23.088;2023-12-20T06:40:43;97700.38;;;-1.92;50.28
39729;BME280;25402;42.004;23.088;2023-12-20T06:43:11;97699.19;;;-1.88;50.08
39729;BME280;25402;42.004;23.088;2023-12-20T06:45:38;97702.28;;;-1.82;49.75
39729;BME280;25402;42.004;23.088;2023-12-20T06:48:06;97700.97;;;-1.89;50.14
39729;BME280;25402;42.004;23.088;2023-12-20T06:50:33;97699.94;;;-1.86;50.03
39729;BME280;25402;42.004;23.088;2023-12-20T06:53:05;97690.06;;;-1.84;49.91
39729;BME280;25402;42.004;23.088;2023-12-20T06:55:33;97678.59;;;-1.97;50.05
39729;BME280;25402;42.004;23.088;2023-12-20T06:58:03;97683.25;;;-1.88;49.98
39729;BME280;25402;42.004;23.088;2023-12-20T07:00:30;97684.84;;;-1.98;50.26
39729;BME280;25402;42.004;23.088;2023-12-20T07:02:57;97677.84;;;-1.99;50.05
39729;BME280;25402;42.004;23.088;2023-12-20T07:05:27;97685.50;;;-1.95;50.36
39729;BME280;25402;42.004;23.088;2023-12-20T07:07:57;97686.16;;;-1.91;50.26
39729;BME280;25402;42.004;23.088;2023-12-20T07:10:26;97672.16;;;-1.93;50.05
39729;BME280;25402;42.004;23.088;2023-12-20T07:12:56;97666.63;;;-1.90;50.41
39729;BME280;25402;42.004;23.088;2023-12-20T07:15:28;97669.16;;;-1.89;50.26
39729;BME280;25402;42.004;23.088;2023-12-20T07:17:56;97654.94;;;-2.00;50.41
39729;BME280;25402;42.004;23.088;2023-12-20T07:20:25;97653.44;;;-2.04;50.70
39729;BME280;25402;42.004;23.088;2023-12-20T07:22:56;97652.84;;;-1.95;50.53
39729;BME280;25402;42.004;23.088;2023-12-20T07:25:24;97656.03;;;-1.90;50.59
39729;BME280;25402;42.004;23.088;2023-12-20T07:27:52;97642.63;;;-1.89;50.33
39729;BME280;25402;42.004;23.088;2023-12-20T07:30:19;97634.94;;;-1.92;50.40
39729;BME280;25402;42.004;23.088;2023-12-20T07:32:48;97642.22;;;-1.83;50.47
39729;BME280;25402;42.004;23.088;2023-12-20T07:35:18;97651.97;;;-1.83;50.33
39729;BME280;25402;42.004;23.088;2023-12-20T07:37:45;97646.69;;;-1.83;50.09
39729;BME280;25402;42.004;23.088;2023-12-20T07:40:12;97643.63;;;-1.77;50.19
39729;BME280;25402;42.004;23.088;2023-12-20T07:42:43;97633.13;;;-1.78;50.11
39729;BME280;25402;42.004;23.088;2023-12-20T07:45:10;97643.28;;;-1.85;50.35
39729;BME280;25402;42.004;23.088;2023-12-20T07:47:37;97638.63;;;-1.82;50.11
39729;BME280;25402;42.004;23.088;2023-12-20T07:50:08;97643.91;;;-1.69;49.90
39729;BME280;25402;42.004;23.088;2023-12-20T07:52:35;97630.75;;;-1.70;49.71
39729;BME280;25402;42.004;23.088;2023-12-20T07:55:04;97627.50;;;-1.74;49.90
39729;BME280;25402;42.004;23.088;2023-12-20T07:57:33;97632.47;;;-1.69;49.96
39729;BME280;25402;42.004;23.088;2023-12-20T08:00:00;97624.28;;;-1.66;49.75
39729;BME280;25402;42.004;23.088;2023-12-20T08:02:29;97627.13;;;-1.57;52.38
39729;BME280;25402;42.004;23.088;2023-12-20T08:04:56;97619.72;;;-1.52;50.46
39729;BME280;25402;42.004;23.088;2023-12-20T08:07:25;97626.91;;;-1.28;50.05
39729;BME280;25402;42.004;23.088;2023-12-20T08:09:52;97623.78;;;-1.22;49.71
39729;BME280;25402;42.004;23.088;2023-12-20T08:12:20;97615.44;;;-1.29;49.27
39729;BME280;25402;42.004;23.088;2023-12-20T08:14:48;97631.09;;;-1.26;48.54
39729;BME280;25402;42.004;23.088;2023-12-20T08:17:15;97606.75;;;-1.43;48.86
39729;BME280;25402;42.004;23.088;2023-12-20T08:19:44;97617.63;;;-1.23;48.95
39729;BME280;25402;42.004;23.088;2023-12-20T08:22:12;97611.19;;;-1.31;48.75
39729;BME280;25402;42.004;23.088;2023-12-20T08:24:48;97612.78;;;-1.29;48.82
39729;BME280;25402;42.004;23.088;2023-12-20T08:27:16;97611.81;;;-1.28;48.62
39729;BME280;25402;42.004;23.088;2023-12-20T08:29:44;97614.16;;;-1.36;48.56
39729;BME280;25402;42.004;23.088;2023-12-20T08:32:11;97612.25;;;-1.34;48.87
39729;BME280;25402;42.004;23.088;2023-12-20T08:34:38;97612.22;;;-1.21;48.41
39729;BME280;25402;42.004;23.088;2023-12-20T08:37:05;97603.75;;;-1.26;48.63
39729;BME280;25402;42.004;23.088;2023-12-20T08:39:32;97602.63;;;-1.11;51.20
39729;BME280;25402;42.004;23.088;2023-12-20T08:42:01;97602.16;;;-1.05;49.83
39729;BME280;25402;42.004;23.088;2023-12-20T08:44:28;97601.09;;;-1.02;48.51
39729;BME280;25402;42.004;23.088;2023-12-20T08:46:55;97576.53;;;-1.17;48.58
39729;BME280;25402;42.004;23.088;2023-12-20T08:49:23;97591.28;;;-1.13;48.10
39729;BME280;25402;42.004;23.088;2023-12-20T08:51:51;97588.25;;;-1.08;48.24
39729;BME280;25402;42.004;23.088;2023-12-20T08:54:18;97583.69;;;-1.06;48.14
39729;BME280;25402;42.004;23.088;2023-12-20T08:56:45;97562.44;;;-1.06;48.07
39729;BME280;25402;42.004;23.088;2023-12-20T08:59:14;97552.63;;;-1.17;48.22
39729;BME280;25402;42.004;23.088;2023-12-20T09:01:41;97551.16;;;-1.21;48.08
39729;BME280;25402;42.004;23.088;2023-12-20T09:04:08;97554.22;;;-1.15;48.23
39729;BME280;25402;42.004;23.088;2023-12-20T09:06:36;97553.31;;;-1.02;47.87
39729;BME280;25402;42.004;23.088;2023-12-20T09:09:03;97550.69;;;-0.91;47.62
39729;BME280;25402;42.004;23.088;2023-12-20T09:11:30;97545.06;;;-0.87;47.54
39729;BME280;25402;42.004;23.088;2023-12-20T09:13:57;97549.31;;;-0.73;47.54
39729;BME280;25402;42.004;23.088;2023-12-20T09:16:25;97549.53;;;-0.76;47.81
39729;BME280;25402;42.004;23.088;2023-12-20T09:18:52;97542.34;;;-0.63;47.41
39729;BME280;25402;42.004;23.088;2023-12-20T09:21:19;97525.81;;;-0.66;47.59
39729;BME280;25402;42.004;23.088;2023-12-20T09:23:46;97530.06;;;-0.64;47.40
39729;BME280;25402;42.004;23.088;2023-12-20T09:26:13;97523.75;;;-0.63;47.54
39729;BME280;25402;42.004;23.088;2023-12-20T09:28:41;97513.91;;;-0.50;48.37
39729;BME280;25402;42.004;23.088;2023-12-20T09:31:09;97514.16;;;-0.30;50.30
39729;BME280;25402;42.004;23.088;2023-12-20T09:33:40;97501.59;;;-0.40;47.49
39729;BME280;25402;42.004;23.088;2023-12-20T09:36:08;97499.53;;;-0.36;47.14
39729;BME280;25402;42.004;23.088;2023-12-20T09:38:35;97501.19;;;-0.46;47.45
39729;BME280;25402;42.004;23.088;2023-12-20T09:41:02;97490.84;;;-0.38;47.34
39729;BME280;25402;42.004;23.088;2023-12-20T09:43:30;97482.50;;;-0.33;46.79
39729;BME280;25402;42.004;23.088;2023-12-20T09:46:00;97484.78;;;-0.29;46.95
39729;BME280;25402;42.004;23.088;2023-12-20T09:48:28;97472.00;;;-0.24;46.80
39729;BME280;25402;42.004;23.088;2023-12-20T09:50:58;97474.16;;;-0.29;47.23
39729;BME280;25402;42.004;23.088;2023-12-20T09:53:26;97469.75;;;-0.17;46.66
39729;BME280;25402;42.004;23.088;2023-12-20T09:55:58;97451.22;;;-0.19;46.50
39729;BME280;25402;42.004;23.088;2023-12-20T09:58:27;97447.50;;;-0.16;46.60
39729;BME280;25402;42.004;23.088;2023-12-20T10:00:55;97448.09;;;-0.13;46.78
39729;BME280;25402;42.004;23.088;2023-12-20T10:03:25;97434.69;;;-0.11;46.31
39729;BME280;25402;42.004;23.088;2023-12-20T10:05:54;97422.22;;;-0.11;46.57
39729;BME280;25402;42.004;23.088;2023-12-20T10:08:24;97423.91;;;-0.10;46.60
39729;BME280;25402;42.004;23.088;2023-12-20T10:10:52;97384.88;;;0.34;60.98
39729;BME280;25402;42.004;23.088;2023-12-20T10:13:23;97409.47;;;2.14;58.92
39729;BME280;25402;42.004;23.088;2023-12-20T10:15:50;97399.38;;;3.23;54.23
39729;BME280;25402;42.004;23.088;2023-12-20T10:18:17;97400.94;;;4.09;50.30
39729;BME280;25402;42.004;23.088;2023-12-20T10:20:44;97384.72;;;4.83;47.16
39729;BME280;25402;42.004;23.088;2023-12-20T10:23:11;97378.06;;;4.88;41.36
39729;BME280;25402;42.004;23.088;2023-12-20T10:25:40;97386.56;;;4.38;40.00
39729;BME280;25402;42.004;23.088;2023-12-20T10:28:10;97380.09;;;3.86;39.33
39729;BME280;25402;42.004;23.088;2023-12-20T10:30:38;97366.31;;;3.43;39.37
39729;BME280;25402;42.004;23.088;2023-12-20T10:33:06;97355.25;;;3.09;39.37
39729;BME280;25402;42.004;23.088;2023-12-20T10:35:33;97358.06;;;2.69;39.75
39729;BME280;25402;42.004;23.088;2023-12-20T10:38:03;97324.91;;;2.24;40.41
39729;BME280;25402;42.004;23.088;2023-12-20T10:40:31;97324.31;;;2.01;41.04
39729;BME280;25402;42.004;23.088;2023-12-20T10:43:01;97331.63;;;1.99;41.31
39729;BME280;25402;42.004;23.088;2023-12-20T10:45:29;97312.56;;;1.73;41.53
39729;BME280;25402;42.004;23.088;2023-12-20T10:47:57;97318.22;;;1.49;42.20
39729;BME280;25402;42.004;23.088;2023-12-20T10:50:27;97311.22;;;1.48;41.96
39729;BME280;25402;42.004;23.088;2023-12-20T10:52:55;97299.63;;;1.28;42.09
39729;BME280;25402;42.004;23.088;2023-12-20T10:55:23;97296.72;;;1.11;42.64
39729;BME280;25402;42.004;23.088;2023-12-20T10:57:51;97280.34;;;0.85;43.32
39729;BME280;25402;42.004;23.088;2023-12-20T11:00:21;97302.53;;;0.95;43.46
39729;BME280;25402;42.004;23.088;2023-12-20T11:02:49;97296.22;;;0.96;43.46
39729;BME280;25402;42.004;23.088;2023-12-20T11:05:26;97296.94;;;0.98;43.68
39729;BME280;25402;42.004;23.088;2023-12-20T11:08:02;97282.03;;;0.86;43.72
39729;BME280;25402;42.004;23.088;2023-12-20T11:10:39;97285.66;;;0.85;43.56
39729;BME280;25402;42.004;23.088;2023-12-20T11:13:12;97275.22;;;0.72;43.93
39729;BME280;25402;42.004;23.088;2023-12-20T11:15:45;97273.66;;;0.70;44.19
39729;BME280;25402;42.004;23.088;2023-12-20T11:18:12;97264.97;;;0.68;44.10
39729;BME280;25402;42.004;23.088;2023-12-20T11:20:40;97266.53;;;0.70;44.09
39729;BME280;25402;42.004;23.088;2023-12-20T11:23:09;97263.47;;;0.75;43.92
39729;BME280;25402;42.004;23.088;2023-12-20T11:25:47;97258.75;;;0.78;43.92
39729;BME280;25402;42.004;23.088;2023-12-20T11:28:15;97245.47;;;0.67;44.37
39729;BME280;25402;42.004;23.088;2023-12-20T11:30:50;97250.66;;;0.69;44.65
39729;BME280;25402;42.004;23.088;2023-12-20T11:33:21;97248.91;;;0.79;44.43
39729;BME280;25402;42.004;23.088;2023-12-20T11:35:48;97242.09;;;0.86;46.15
39729;BME280;25402;42.004;23.088;2023-12-20T11:38:16;97243.25;;;0.93;44.77
39729;BME280;25402;42.004;23.088;2023-12-20T11:40:43;97224.28;;;0.86;44.82
39729;BME280;25402;42.004;23.088;2023-12-20T11:43:10;97231.56;;;0.84;44.85
39729;BME280;25402;42.004;23.088;2023-12-20T11:45:37;97228.75;;;0.86;44.94
39729;BME280;25402;42.004;23.088;2023-12-20T11:48:17;97224.94;;;0.79;44.84
39729;BME280;25402;42.004;23.088;2023-12-20T11:50:45;97214.59;;;0.85;44.73
39729;BME280;25402;42.004;23.088;2023-12-20T11:53:12;97200.09;;;0.69;44.86
39729;BME280;25402;42.004;23.088;2023-12-20T11:55:39;97212.66;;;0.57;45.01
39729;BME280;25402;42.004;23.088;2023-12-20T11:58:06;97191.44;;;0.76;44.57
39729;BME280;25402;42.004;23.088;2023-12-20T12:00:34;97204.47;;;0.79;44.69
39729;BME280;25402;42.004;23.088;2023-12-20T12:03:02;97170.09;;;0.67;45.04
39729;BME280;25402;42.004;23.088;2023-12-20T12:05:32;97188.19;;;0.73;45.01
39729;BME280;25402;42.004;23.088;2023-12-20T12:07:59;97171.41;;;0.51;44.82
39729;BME280;25402;42.004;23.088;2023-12-20T12:10:28;97174.50;;;0.47;45.09
39729;BME280;25402;42.004;23.088;2023-12-20T12:12:56;97175.88;;;0.51;45.37
39729;BME280;25402;42.004;23.088;2023-12-20T12:15:23;97181.22;;;0.51;45.63
39729;BME280;25402;42.004;23.088;2023-12-20T12:17:53;97176.38;;;0.65;45.70
39729;BME280;25402;42.004;23.088;2023-12-20T12:20:22;97177.00;;;0.48;46.02
39729;BME280;25402;42.004;23.088;2023-12-20T12:22:59;97165.88;;;0.64;45.46
39729;BME280;25402;42.004;23.088;2023-12-20T12:25:26;97155.53;;;0.71;45.58
39729;BME280;25402;42.004;23.088;2023-12-20T12:27:55;97159.31;;;0.68;45.50
39729;BME280;25402;42.004;23.088;2023-12-20T12:30:22;97153.53;;;0.63;45.18
39729;BME280;25402;42.004;23.088;2023-12-20T12:32:50;97139.25;;;0.64;45.25
39729;BME280;25402;42.004;23.088;2023-12-20T12:35:18;97140.63;;;0.58;45.63
39729;BME280;25402;42.004;23.088;2023-12-20T12:37:45;97143.72;;;0.63;45.77
39729;BME280;25402;42.004;23.088;2023-12-20T12:40:15;97141.13;;;0.73;45.17
39729;BME280;25402;42.004;23.088;2023-12-20T12:42:44;97137.56;;;0.63;45.43
39729;BME280;25402;42.004;23.088;2023-12-20T12:45:11;97137.44;;;1.14;59.79
39729;BME280;25402;42.004;23.088;2023-12-20T12:47:39;97114.13;;;2.51;59.39
39729;BME280;25402;42.004;23.088;2023-12-20T12:50:07;97122.88;;;3.71;54.96
39729;BME280;25402;42.004;23.088;2023-12-20T12:52:34;97116.31;;;4.53;50.75
39729;BME280;25402;42.004;23.088;2023-12-20T12:55:02;97117.50;;;5.18;48.42
39729;BME280;25402;42.004;23.088;2023-12-20T12:57:31;97115.66;;;5.93;46.02